Terminal Aerodrome Forecast
Issued by NWS

Home | Current Version | Previous Version | Graphics & Text | Print | Product List | Glossary On
Versions: 1 2 3 4 5 6 7 8 9 10 11 12
000
FTUS43 KBIS 191700
TAFMOT
TAF
KMOT 191720Z 1918/2018 30020G25KT P6SM -SN BKN025
     FM191900 30018G27KT P6SM BKN100
     FM200100 28011KT P6SM BKN250
     FM200700 27007KT P6SM SCT250=

USA.gov is the U.S. government's official web portal to all federal, state and local government web resources and services.